createdAt,value
2022-09-07T00:00:53.333Z,4.70
2022-09-07T00:03:22.172Z,2.47
2022-09-07T00:05:51.660Z,4.68
2022-09-07T00:08:22.154Z,2.50
2022-09-07T00:10:54.959Z,3.15
2022-09-07T00:13:23.798Z,2.45
2022-09-07T00:15:53.918Z,3.28
2022-09-07T00:18:22.307Z,2.20
2022-09-07T00:20:59.092Z,3.00
2022-09-07T00:23:27.448Z,3.28
2022-09-07T00:25:55.843Z,3.63
2022-09-07T00:28:24.218Z,2.63
2022-09-07T00:30:54.077Z,3.28
2022-09-07T00:33:22.423Z,6.10
2022-09-07T00:35:50.793Z,9.68
2022-09-07T00:38:19.149Z,9.07
2022-09-07T00:40:47.517Z,7.57
2022-09-07T00:43:17.731Z,7.65
2022-09-07T00:45:46.094Z,7.10
2022-09-07T00:48:18.018Z,5.53
2022-09-07T00:50:48.043Z,5.60
2022-09-07T00:53:18.082Z,4.13
2022-09-07T00:55:47.927Z,6.65
2022-09-07T00:58:16.564Z,3.10
2022-09-07T01:00:45.937Z,6.47
2022-09-07T01:03:16.272Z,4.88
2022-09-07T01:05:45.843Z,4.93
2022-09-07T01:08:15.127Z,4.05
2022-09-07T01:10:43.831Z,3.92
2022-09-07T01:13:12.204Z,4.10
2022-09-07T01:15:45.453Z,4.47
2022-09-07T01:18:23.383Z,2.75
2022-09-07T01:21:06.639Z,3.85
2022-09-07T01:23:41.196Z,4.18
2022-09-07T01:26:25.347Z,4.35
2022-09-07T01:29:00.934Z,5.03
2022-09-07T01:31:35.812Z,4.95
2022-09-07T01:34:08.934Z,3.63
2022-09-07T01:36:42.549Z,4.75
2022-09-07T01:39:10.903Z,4.13
2022-09-07T01:41:41.677Z,3.85
2022-09-07T01:44:12.829Z,4.80
2022-09-07T01:46:43.815Z,3.50
2022-09-07T01:49:13.498Z,3.28
2022-09-07T01:51:44.127Z,4.45
2022-09-07T01:54:16.666Z,2.83
2022-09-07T01:56:46.676Z,4.05
2022-09-07T01:59:20.350Z,3.50
2022-09-07T02:01:52.490Z,3.92
2022-09-07T02:04:22.550Z,2.83
2022-09-07T02:06:53.043Z,3.92
2022-09-07T02:09:24.785Z,3.97
2022-09-07T02:11:53.348Z,3.10
2022-09-07T02:14:25.398Z,5.53
2022-09-07T02:16:57.343Z,3.90
2022-09-07T02:19:27.131Z,2.83
2022-09-07T02:21:58.915Z,4.55
2022-09-07T02:24:29.539Z,4.70
2022-09-07T02:26:59.457Z,9.75
2022-09-07T02:29:31.103Z,4.22
2022-09-07T02:31:59.562Z,3.97
2022-09-07T02:34:28.111Z,4.00
2022-09-07T02:36:57.236Z,3.83
2022-09-07T02:39:25.663Z,4.82
2022-09-07T02:41:54.045Z,3.38
2022-09-07T02:44:23.807Z,3.33
2022-09-07T02:47:02.577Z,2.97
2022-09-07T02:49:37.801Z,3.90
2022-09-07T02:52:09.986Z,3.15
2022-09-07T02:54:43.981Z,3.90
2022-09-07T02:57:19.081Z,4.15
2022-09-07T02:59:50.255Z,4.95
2022-09-07T03:02:23.342Z,3.83
2022-09-07T03:04:52.980Z,3.70
2022-09-07T03:07:24.095Z,3.90
2022-09-07T03:09:55.064Z,3.90
2022-09-07T03:12:23.440Z,4.72
2022-09-07T03:14:51.833Z,4.15
2022-09-07T03:17:20.276Z,5.05
2022-09-07T03:19:50.074Z,6.25
2022-09-07T03:22:18.470Z,6.43
2022-09-07T03:24:46.852Z,9.20
2022-09-07T03:27:15.190Z,9.18
2022-09-07T03:29:43.561Z,9.77
2022-09-07T03:32:11.935Z,12.85
2022-09-07T03:34:40.536Z,13.63
2022-09-07T03:37:10.270Z,16.35
2022-09-07T03:39:38.688Z,18.02
2022-09-07T03:42:07.162Z,19.52
2022-09-07T03:44:35.569Z,20.30
2022-09-07T03:47:03.922Z,21.73
2022-09-07T03:49:32.302Z,21.42
2022-09-07T03:52:00.664Z,23.23
2022-09-07T03:54:31.041Z,23.33
2022-09-07T03:56:59.453Z,24.13
2022-09-07T03:59:27.905Z,24.30
2022-09-07T04:01:56.289Z,26.08
2022-09-07T04:04:24.673Z,30.30
2022-09-07T04:06:53.040Z,28.88
2022-09-07T04:09:21.449Z,32.15
2022-09-07T04:11:51.182Z,29.90
2022-09-07T04:14:19.589Z,32.55
2022-09-07T04:16:48.600Z,35.75
2022-09-07T04:19:17.130Z,35.90
2022-09-07T04:21:46.773Z,34.97
2022-09-07T04:24:15.183Z,37.35
2022-09-07T04:26:44.297Z,42.25
2022-09-07T04:29:14.891Z,38.67
2022-09-07T04:31:43.248Z,38.47
2022-09-07T04:34:12.067Z,41.50
2022-09-07T04:36:40.817Z,38.67
2022-09-07T04:39:09.262Z,37.67
2022-09-07T04:41:37.619Z,39.83
2022-09-07T04:44:06.323Z,40.38
2022-09-07T04:46:36.665Z,39.63
2022-09-07T04:49:06.093Z,34.55
2022-09-07T04:51:34.802Z,37.28
2022-09-07T04:54:04.096Z,34.67
2022-09-07T04:56:33.004Z,34.45
2022-09-07T04:59:01.540Z,34.50
2022-09-07T05:01:30.374Z,29.88
2022-09-07T05:04:00.828Z,31.05
2022-09-07T05:06:29.263Z,29.73
2022-09-07T05:08:58.008Z,31.60
2022-09-07T05:11:29.522Z,29.00
2022-09-07T05:13:58.717Z,31.08
2022-09-07T05:16:27.794Z,29.90
2022-09-07T05:18:56.787Z,30.00
2022-09-07T05:21:27.641Z,24.83
2022-09-07T05:23:56.936Z,26.38
2022-09-07T05:26:26.893Z,23.13
2022-09-07T05:31:43.822Z,22.45
2022-09-07T05:36:57.521Z,23.00
2022-09-07T05:39:26.602Z,21.02
2022-09-07T05:46:55.125Z,22.95
2022-09-07T05:49:23.837Z,23.52
2022-09-07T05:51:52.770Z,20.35
2022-09-07T05:54:21.383Z,22.98
2022-09-07T05:56:50.234Z,20.55
2022-09-07T05:59:20.717Z,21.42
2022-09-07T06:01:49.668Z,21.77
2022-09-07T06:04:19.036Z,19.27
2022-09-07T06:07:19.916Z,20.42
2022-09-07T06:12:28.920Z,21.65
2022-09-07T06:14:59.729Z,21.50
2022-09-07T06:17:28.798Z,22.63
2022-09-07T06:19:57.313Z,24.10
2022-09-07T06:22:30.222Z,25.60
2022-09-07T06:25:00.316Z,21.85
2022-09-07T06:27:29.601Z,26.85
2022-09-07T06:29:59.648Z,25.10
2022-09-07T06:32:44.556Z,25.35
2022-09-07T06:35:13.882Z,26.60
2022-09-07T06:37:42.707Z,23.80
2022-09-07T06:40:12.150Z,26.83
2022-09-07T06:42:41.211Z,28.42
2022-09-07T06:45:12.100Z,27.10
2022-09-07T06:47:41.002Z,25.73
2022-09-07T06:50:10.386Z,27.77
2022-09-07T06:55:28.956Z,26.52
2022-09-07T06:57:57.877Z,25.63
2022-09-07T07:00:28.252Z,23.02
2022-09-07T07:02:56.931Z,22.45
2022-09-07T07:05:25.550Z,23.27
2022-09-07T07:07:54.133Z,23.15
2022-09-07T07:10:24.943Z,20.42
2022-09-07T07:12:57.457Z,21.75
2022-09-07T07:15:29.460Z,23.83
2022-09-07T07:18:09.285Z,19.77
2022-09-07T07:20:46.317Z,18.63
2022-09-07T07:23:14.752Z,22.38
2022-09-07T07:25:43.134Z,20.80
2022-09-07T07:31:05.949Z,20.52
2022-09-07T07:33:36.739Z,24.63
2022-09-07T07:36:12.318Z,22.42
2022-09-07T07:44:20.722Z,15.45
2022-09-07T07:46:51.110Z,15.48
2022-09-07T07:49:19.840Z,15.98
2022-09-07T07:54:37.252Z,14.38
2022-09-07T07:57:06.391Z,13.23
2022-09-07T07:59:34.868Z,12.90
2022-09-07T08:02:05.883Z,13.02
2022-09-07T08:04:34.821Z,10.85
2022-09-07T08:07:09.543Z,10.93
2022-09-07T08:09:39.794Z,12.27
2022-09-07T08:12:08.485Z,11.07
2022-09-07T08:14:41.187Z,13.10
2022-09-07T08:17:12.263Z,11.20
2022-09-07T08:19:40.834Z,12.55
2022-09-07T08:22:09.898Z,15.32
2022-09-07T08:24:38.551Z,10.93
2022-09-07T08:27:07.336Z,12.55
2022-09-07T08:29:36.126Z,15.43
2022-09-07T08:32:06.234Z,13.73
2022-09-07T08:34:36.857Z,14.70
2022-09-07T08:37:05.430Z,13.13
2022-09-07T08:39:33.897Z,14.18
2022-09-07T08:42:08.755Z,12.88
2022-09-07T08:44:40.839Z,12.90
2022-09-07T08:47:13.663Z,12.88
2022-09-07T08:49:45.978Z,11.73
2022-09-07T08:52:16.103Z,12.45
2022-09-07T08:54:46.108Z,13.93
2022-09-07T08:57:25.021Z,11.52
2022-09-07T08:59:56.062Z,13.82
2022-09-07T09:02:28.445Z,10.77
2022-09-07T09:07:51.225Z,13.23
2022-09-07T09:10:23.657Z,11.30
2022-09-07T09:13:01.393Z,13.88
2022-09-07T09:15:35.213Z,11.38
2022-09-07T09:18:05.599Z,13.02
2022-09-07T09:20:38.217Z,11.63
2022-09-07T09:23:12.333Z,11.85
2022-09-07T09:25:42.516Z,11.75
2022-09-07T09:28:13.281Z,11.50
2022-09-07T09:30:41.762Z,8.93
2022-09-07T09:33:18.512Z,9.45
2022-09-07T09:35:50.318Z,9.65
2022-09-07T09:38:32.916Z,9.95
2022-09-07T09:41:03.256Z,8.90
2022-09-07T09:43:35.746Z,11.35
2022-09-07T09:46:19.542Z,12.45
2022-09-07T09:48:52.215Z,9.35
2022-09-07T09:54:21.431Z,11.85
2022-09-07T09:56:50.792Z,12.93
2022-09-07T10:05:31.334Z,14.15
2022-09-07T10:08:01.083Z,11.95
2022-09-07T10:10:31.435Z,9.55
2022-09-07T10:13:00.238Z,13.50
2022-09-07T10:15:32.812Z,10.38
2022-09-07T10:18:04.585Z,8.68
2022-09-07T10:20:34.956Z,7.97
2022-09-07T10:23:05.447Z,7.95
2022-09-07T10:25:34.914Z,7.85
2022-09-07T10:28:04.617Z,9.88
2022-09-07T10:30:35.414Z,7.75
2022-09-07T10:33:09.143Z,6.03
2022-09-07T10:35:39.366Z,7.65
2022-09-07T10:38:15.054Z,7.05
2022-09-07T10:40:45.843Z,8.82
2022-09-07T10:43:21.688Z,6.63
2022-09-07T10:46:08.310Z,6.20
2022-09-07T10:48:40.457Z,10.02
2022-09-07T10:51:14.465Z,6.63
2022-09-07T10:54:29.949Z,6.45
2022-09-07T10:56:42.275Z,8.23
2022-09-07T10:59:20.682Z,8.43
2022-09-07T11:01:53.643Z,7.82
2022-09-07T11:04:37.043Z,8.18
2022-09-07T11:07:12.396Z,8.35
2022-09-07T11:09:50.156Z,7.35
2022-09-07T11:12:23.772Z,7.53
2022-09-07T11:14:58.199Z,8.55
2022-09-07T11:17:28.045Z,7.45
2022-09-07T11:19:58.571Z,7.05
2022-09-07T11:22:33.156Z,8.45
2022-09-07T11:27:56.178Z,8.88
2022-09-07T11:30:25.938Z,8.15
2022-09-07T11:33:01.259Z,8.02
2022-09-07T11:35:36.250Z,9.60
2022-09-07T11:38:08.085Z,8.18
2022-09-07T11:40:39.510Z,9.80
2022-09-07T11:43:14.710Z,8.52
2022-09-07T11:45:45.912Z,7.88
2022-09-07T11:48:19.438Z,7.72
2022-09-07T11:50:49.397Z,8.77
2022-09-07T11:53:19.380Z,6.95
2022-09-07T11:55:52.257Z,8.63
2022-09-07T11:58:40.233Z,8.18
2022-09-07T12:01:13.663Z,7.78
2022-09-07T12:03:55.395Z,7.45
2022-09-07T12:06:45.411Z,7.07
2022-09-07T12:09:19.053Z,7.10
2022-09-07T12:12:08.174Z,5.90
2022-09-07T12:14:43.616Z,8.13
2022-09-07T12:17:23.685Z,8.30
2022-09-07T12:20:11.180Z,7.00
2022-09-07T12:22:39.513Z,6.65
2022-09-07T12:25:10.170Z,7.50
2022-09-07T12:27:39.779Z,8.30
2022-09-07T12:30:27.118Z,7.78
2022-09-07T12:33:05.965Z,7.60
2022-09-07T12:35:39.305Z,9.27
2022-09-07T12:38:41.253Z,7.25
2022-09-07T12:41:22.756Z,7.57
2022-09-07T12:43:55.381Z,9.00
2022-09-07T12:46:42.801Z,8.13
2022-09-07T12:49:18.451Z,10.68
2022-09-07T12:52:02.054Z,6.30
2022-09-07T12:54:39.336Z,7.55
2022-09-07T12:57:31.624Z,9.80
2022-09-07T13:00:07.221Z,8.45
2022-09-07T13:02:50.471Z,6.07
2022-09-07T13:05:23.787Z,4.88
2022-09-07T13:08:08.663Z,8.73
2022-09-07T13:10:38.333Z,6.07
2022-09-07T13:13:07.597Z,5.57
2022-09-07T13:15:45.720Z,6.00
2022-09-07T13:18:28.960Z,3.53
2022-09-07T13:21:13.005Z,3.10
2022-09-07T13:23:43.279Z,6.30
2022-09-07T13:26:14.051Z,4.43
2022-09-07T13:28:51.645Z,6.18
2022-09-07T13:31:41.007Z,5.25
2022-09-07T13:34:27.833Z,4.32
2022-09-07T13:36:56.284Z,3.60
2022-09-07T13:39:26.301Z,4.88
2022-09-07T13:41:56.828Z,4.00
2022-09-07T13:44:26.922Z,5.07
2022-09-07T13:47:01.664Z,4.28
2022-09-07T13:49:36.666Z,4.10
2022-09-07T13:52:08.052Z,5.47
2022-09-07T13:54:45.143Z,4.80
2022-09-07T13:57:16.559Z,3.90
2022-09-07T13:59:45.010Z,4.53
2022-09-07T14:02:20.964Z,4.40
2022-09-07T14:04:50.860Z,4.20
2022-09-07T14:07:21.891Z,3.63
2022-09-07T14:10:05.084Z,5.78
2022-09-07T14:12:33.464Z,4.25
2022-09-07T14:15:25.954Z,3.55
2022-09-07T14:17:57.153Z,3.95
2022-09-07T14:20:25.693Z,3.92
2022-09-07T14:22:54.066Z,5.13
2022-09-07T14:25:23.847Z,4.55
2022-09-07T14:27:52.250Z,3.97
2022-09-07T14:30:28.342Z,2.20
2022-09-07T14:32:57.849Z,6.13
2022-09-07T14:35:28.391Z,4.40
2022-09-07T14:37:57.538Z,3.42
2022-09-07T14:40:27.798Z,3.85
2022-09-07T14:42:58.124Z,2.60
2022-09-07T14:45:33.764Z,3.05
2022-09-07T14:48:12.118Z,2.83
2022-09-07T14:50:41.218Z,3.47
2022-09-07T14:56:04.032Z,5.47
2022-09-07T14:58:32.925Z,4.70
2022-09-07T15:04:01.290Z,5.15
2022-09-07T15:09:28.874Z,3.40
2022-09-07T15:12:15.443Z,2.42
2022-09-07T15:14:44.239Z,3.38
2022-09-07T15:20:25.835Z,3.08
2022-09-07T15:22:54.478Z,4.18
2022-09-07T15:25:22.974Z,3.40
2022-09-07T15:27:52.672Z,3.08
2022-09-07T15:30:21.126Z,3.67
2022-09-07T15:32:49.583Z,2.88
2022-09-07T15:35:18.053Z,3.10
2022-09-07T15:38:02.784Z,4.78
2022-09-07T15:40:38.393Z,3.67
2022-09-07T15:43:19.918Z,3.53
2022-09-07T15:45:51.179Z,1.98
2022-09-07T15:48:20.855Z,4.85
2022-09-07T15:50:49.609Z,4.97
2022-09-07T15:56:06.939Z,2.78
2022-09-07T15:58:36.659Z,3.22
2022-09-07T16:03:54.397Z,3.28
2022-09-07T16:06:23.515Z,4.05
2022-09-07T16:08:52.833Z,2.38
2022-09-07T16:11:23.999Z,3.85
2022-09-07T16:14:01.535Z,4.38
2022-09-07T16:19:20.935Z,4.13
2022-09-07T16:21:49.640Z,2.42
2022-09-07T16:24:18.410Z,3.85
2022-09-07T16:26:46.738Z,3.05
2022-09-07T16:29:17.782Z,3.42
2022-09-07T16:34:34.655Z,2.80
2022-09-07T16:37:03.016Z,3.90
2022-09-07T16:39:32.048Z,2.95
2022-09-07T16:42:00.594Z,4.68
2022-09-07T16:44:30.506Z,4.05
2022-09-07T16:46:59.796Z,3.40
2022-09-07T16:49:28.774Z,4.50
2022-09-07T16:51:58.937Z,3.67
2022-09-07T16:54:27.427Z,2.95
2022-09-07T16:56:55.776Z,4.13
2022-09-07T16:59:26.773Z,5.00
2022-09-07T17:01:56.863Z,2.63
2022-09-07T17:04:25.473Z,3.58
2022-09-07T17:06:54.540Z,4.78
2022-09-07T17:09:26.476Z,3.55
2022-09-07T17:11:54.909Z,7.80
2022-09-07T17:14:23.373Z,5.20
2022-09-07T17:16:51.794Z,2.95
2022-09-07T17:19:30.033Z,3.65
2022-09-07T17:21:59.921Z,3.58
2022-09-07T17:24:28.312Z,5.95
2022-09-07T17:26:56.754Z,4.32
2022-09-07T17:29:30.442Z,3.65
2022-09-07T17:34:51.356Z,6.60
2022-09-07T17:37:20.085Z,5.32
2022-09-07T17:39:48.631Z,3.17
2022-09-07T17:42:17.099Z,3.13
2022-09-07T17:44:45.513Z,3.83
2022-09-07T17:47:13.983Z,4.10
2022-09-07T17:49:42.365Z,5.55
2022-09-07T17:52:12.110Z,2.70
2022-09-07T17:54:41.879Z,6.70
2022-09-07T17:57:10.550Z,2.90
2022-09-07T18:02:27.838Z,5.53
2022-09-07T18:04:56.958Z,3.58
2022-09-07T18:07:26.942Z,6.18
2022-09-07T18:09:55.474Z,3.53
2022-09-07T18:12:23.989Z,2.95
2022-09-07T18:14:52.465Z,3.90
2022-09-07T18:17:20.896Z,3.40
2022-09-07T18:19:49.265Z,3.78
2022-09-07T18:22:17.675Z,7.40
2022-09-07T18:24:47.482Z,3.58
2022-09-07T18:27:15.923Z,2.53
2022-09-07T18:29:44.574Z,3.67
2022-09-07T18:32:13.024Z,3.47
2022-09-07T18:34:41.681Z,5.90
2022-09-07T18:37:12.204Z,7.28
2022-09-07T18:39:41.140Z,3.95
2022-09-07T18:42:11.285Z,3.90
2022-09-07T18:47:29.319Z,2.97
2022-09-07T18:49:58.128Z,4.47
2022-09-07T18:55:15.091Z,3.80
2022-09-07T18:57:44.966Z,4.90
2022-09-07T19:00:14.556Z,5.20
2022-09-07T19:02:42.960Z,6.32
2022-09-07T19:08:03.277Z,4.30
2022-09-07T19:10:31.900Z,3.67
2022-09-07T19:13:01.697Z,6.45
2022-09-07T19:15:33.128Z,3.15
2022-09-07T19:18:05.665Z,4.78
2022-09-07T19:20:34.889Z,5.35
2022-09-07T19:23:03.408Z,5.90
2022-09-07T19:25:31.780Z,7.22
2022-09-07T19:28:00.152Z,5.40
2022-09-07T19:30:30.447Z,2.88
2022-09-07T19:33:03.967Z,2.55
2022-09-07T19:35:36.525Z,4.55
2022-09-07T19:38:04.979Z,5.25
2022-09-07T19:40:33.511Z,6.93
2022-09-07T19:43:01.884Z,5.07
2022-09-07T19:45:31.675Z,5.30
2022-09-07T19:48:00.188Z,6.32
2022-09-07T19:50:28.691Z,3.80
2022-09-07T19:52:57.079Z,3.67
2022-09-07T19:55:25.458Z,3.10
2022-09-07T19:57:56.629Z,5.22
2022-09-07T20:00:34.317Z,5.47
2022-09-07T20:03:04.319Z,3.47
2022-09-07T20:05:32.907Z,3.90
2022-09-07T20:08:01.951Z,6.07
2022-09-07T20:10:32.820Z,5.05
2022-09-07T20:13:01.321Z,4.85
2022-09-07T20:15:30.077Z,3.65
2022-09-07T20:17:59.217Z,4.45
2022-09-07T20:20:28.917Z,4.57
2022-09-07T20:22:57.608Z,5.88
2022-09-07T20:25:26.059Z,5.63
2022-09-07T20:27:54.429Z,3.95
2022-09-07T20:30:24.285Z,3.80
2022-09-07T20:32:52.680Z,6.30
2022-09-07T20:35:21.133Z,3.83
2022-09-07T20:37:50.876Z,6.72
2022-09-07T20:40:19.310Z,4.72
2022-09-07T20:42:47.726Z,4.20
2022-09-07T20:45:16.136Z,5.38
2022-09-07T20:47:44.745Z,9.85
2022-09-07T20:50:13.496Z,3.63
2022-09-07T20:52:41.858Z,5.72
2022-09-07T20:55:12.489Z,4.07
2022-09-07T20:57:40.962Z,5.80
2022-09-07T21:00:10.237Z,5.53
2022-09-07T21:02:38.649Z,5.03
2022-09-07T21:05:07.861Z,4.35
2022-09-07T21:07:36.631Z,4.68
2022-09-07T21:10:06.939Z,4.40
2022-09-07T21:12:37.107Z,5.28
2022-09-07T21:15:05.648Z,4.90
2022-09-07T21:17:34.007Z,5.13
2022-09-07T21:20:02.328Z,4.28
2022-09-07T21:22:30.744Z,5.97
2022-09-07T21:24:59.124Z,4.60
2022-09-07T21:27:27.672Z,4.28
2022-09-07T21:29:57.489Z,3.90
2022-09-07T21:32:25.904Z,4.95
2022-09-07T21:34:56.403Z,4.45
2022-09-07T21:37:24.848Z,3.13
2022-09-07T21:39:53.254Z,4.15
2022-09-07T21:42:21.639Z,6.60
2022-09-07T21:44:49.968Z,3.60
2022-09-07T21:47:19.784Z,4.20
2022-09-07T21:49:48.149Z,4.15
2022-09-07T21:52:16.527Z,3.92
2022-09-07T21:54:45.157Z,4.53
2022-09-07T21:57:13.612Z,5.50
2022-09-07T21:59:41.963Z,5.10
2022-09-07T22:02:10.402Z,4.88
2022-09-07T22:04:40.183Z,5.68
2022-09-07T22:07:08.749Z,4.63
2022-09-07T22:09:37.084Z,3.65
2022-09-07T22:12:05.589Z,4.82
2022-09-07T22:14:33.954Z,3.72
2022-09-07T22:17:02.812Z,4.47
2022-09-07T22:19:31.145Z,4.63
2022-09-07T22:22:00.937Z,3.97
2022-09-07T22:24:29.355Z,4.35
2022-09-07T22:26:57.817Z,5.18
2022-09-07T22:29:26.144Z,4.43
2022-09-07T22:31:54.624Z,6.75
2022-09-07T22:34:23.113Z,4.80
2022-09-07T22:36:51.594Z,6.53
2022-09-07T22:39:21.602Z,4.25
2022-09-07T22:41:50.008Z,5.97
2022-09-07T22:44:19.547Z,4.00
2022-09-07T22:46:48.957Z,3.97
2022-09-07T22:49:18.249Z,6.72
2022-09-07T22:51:46.938Z,5.18
2022-09-07T22:54:15.452Z,7.28
2022-09-07T22:56:45.291Z,7.07
2022-09-07T22:59:13.942Z,6.25
2022-09-07T23:01:42.760Z,4.53
2022-09-07T23:04:12.002Z,5.75
2022-09-07T23:06:41.528Z,6.30
2022-09-07T23:09:10.854Z,5.72
2022-09-07T23:11:39.289Z,6.35
2022-09-07T23:14:09.732Z,5.35
2022-09-07T23:16:38.152Z,7.80
2022-09-07T23:19:06.900Z,6.03
2022-09-07T23:21:35.261Z,6.18
2022-09-07T23:24:04.141Z,5.55
2022-09-07T23:26:33.568Z,3.88
2022-09-07T23:29:03.031Z,5.57
2022-09-07T23:31:33.943Z,5.43
2022-09-07T23:34:02.845Z,4.05
2022-09-07T23:36:31.773Z,5.72
2022-09-07T23:39:01.120Z,4.90
2022-09-07T23:41:29.852Z,4.38
2022-09-07T23:43:58.218Z,4.90
2022-09-07T23:46:26.741Z,4.95
2022-09-07T23:48:56.509Z,6.43
2022-09-07T23:51:25.023Z,6.45
2022-09-07T23:53:53.710Z,7.05
2022-09-07T23:56:22.059Z,5.40
2022-09-07T23:58:50.452Z,5.72
